Time;durP1;ratioP1;P1;durP2;ratioP2;P2;SDS_P1;SDS_P2;PMS_P1;PMS_P2;Temp;Humidity;BMP_temperature;BMP_pressure;BME280_temperature;BME280_humidity;BME280_pressure;Samples;Min_cycle;Max_cycle;Signal;HPM_P1;HPM_P2
2022/08/14 00:00:00;;;;;;;5.75;4.95;;;24.80;57.30;;;;;;5033231;28;20136;-73
2022/08/14 00:02:27;;;;;;;5.35;4.85;;;24.80;57.40;;;;;;5034469;28;20069;-73
2022/08/14 00:04:54;;;;;;;8.75;5.15;;;24.80;60.00;;;;;;5033420;28;20208;-70
2022/08/14 00:07:20;;;;;;;5.72;4.70;;;24.80;57.40;;;;;;5034617;28;20045;-70
2022/08/14 00:09:47;;;;;;;6.53;5.05;;;24.80;57.30;;;;;;5033681;28;20049;-71
2022/08/14 00:12:14;;;;;;;5.50;5.00;;;24.60;59.40;;;;;;5034170;28;20482;-70
2022/08/14 00:14:41;;;;;;;5.72;4.88;;;24.70;57.30;;;;;;5034300;28;20084;-70
2022/08/14 00:17:09;;;;;;;5.53;4.90;;;24.70;57.30;;;;;;5033103;28;20132;-71
2022/08/14 00:19:35;;;;;;;5.28;4.78;;;24.60;60.90;;;;;;5032755;28;20053;-70
2022/08/14 00:22:02;;;;;;;6.70;4.70;;;24.90;59.20;;;;;;5032066;28;20086;-70
2022/08/14 00:24:29;;;;;;;6.03;5.43;;;24.70;61.50;;;;;;5032652;28;20434;-70
2022/08/14 00:26:55;;;;;;;6.28;5.68;;;24.70;57.40;;;;;;5032875;28;20132;-72
2022/08/14 00:29:22;;;;;;;6.18;5.40;;;24.70;57.40;;;;;;5033004;28;20058;-70
2022/08/14 00:31:49;;;;;;;5.88;4.90;;;23.80;59.10;;;;;;5032716;28;20049;-70
2022/08/14 00:34:17;;;;;;;6.47;5.13;;;25.40;60.90;;;;;;5032872;28;20140;-73
2022/08/14 00:36:43;;;;;;;6.32;5.13;;;24.70;57.40;;;;;;5033909;28;20045;-73
2022/08/14 00:39:13;;;;;;;5.88;5.38;;;24.70;57.40;;;;;;5032725;28;20129;-70
2022/08/14 00:41:39;;;;;;;5.90;5.38;;;24.60;57.30;;;;;;5029062;28;20054;-71
2022/08/14 00:44:06;;;;;;;6.35;5.75;;;24.80;60.30;;;;;;5012902;28;20145;-70
2022/08/14 00:46:33;;;;;;;8.05;5.53;;;24.60;60.70;;;;;;5013935;28;20046;-70
2022/08/14 00:49:00;;;;;;;7.43;5.40;;;24.60;57.30;;;;;;5012820;28;20068;-70
2022/08/14 00:51:32;;;;;;;6.22;5.63;;;24.60;57.30;;;;;;5012313;28;20132;-71
2022/08/14 00:53:59;;;;;;;6.03;5.43;;;24.60;57.30;;;;;;5020635;28;20055;-70
2022/08/14 00:56:26;;;;;;;7.85;5.18;;;24.50;60.90;;;;;;5032456;28;20095;-70
2022/08/14 00:58:53;;;;;;;8.15;5.28;;;24.50;60.00;;;;;;5033471;28;20132;-71
2022/08/14 01:01:20;;;;;;;5.95;5.35;;;25.00;59.90;;;;;;5033415;28;20095;-70
2022/08/14 01:03:46;;;;;;;5.63;5.00;;;24.60;60.20;;;;;;5032243;28;20139;-71
2022/08/14 01:06:14;;;;;;;7.05;5.82;;;24.60;60.50;;;;;;5031993;28;20146;-71
2022/08/14 01:08:42;;;;;;;6.80;6.10;;;23.90;59.70;;;;;;5031864;28;20052;-73
2022/08/14 01:11:10;;;;;;;8.75;5.53;;;24.50;57.40;;;;;;5033016;28;20148;-71
2022/08/14 01:13:38;;;;;;;6.35;5.75;;;24.50;58.00;;;;;;5032089;28;20140;-72
2022/08/14 01:16:07;;;;;;;8.13;6.05;;;24.60;57.50;;;;;;5033288;28;20410;-74
2022/08/14 01:21:23;;;;;;;7.45;5.90;;;24.60;57.50;;;;;;5031782;28;20049;-71
2022/08/14 01:23:52;;;;;;;6.80;6.10;;;24.50;57.40;;;;;;5031804;28;20053;-71
2022/08/14 01:26:22;;;;;;;6.60;5.90;;;24.50;57.50;;;;;;5032986;28;20060;-73
2022/08/14 01:28:50;;;;;;;7.97;6.03;;;24.40;61.90;;;;;;5032804;28;20060;-73
2022/08/14 01:31:18;;;;;;;5.78;5.28;;;24.50;61.40;;;;;;5031380;28;20072;-70
2022/08/14 01:33:49;;;;;;;7.80;6.30;;;24.70;61.00;;;;;;5030183;28;20056;-71
2022/08/14 01:36:16;;;;;;;6.40;5.80;;;24.30;60.60;;;;;;5031846;28;20057;-71
2022/08/14 01:38:47;;;;;;;6.20;5.60;;;24.40;60.90;;;;;;5031415;28;20105;-70
2022/08/14 01:41:15;;;;;;;6.20;5.50;;;24.30;57.40;;;;;;5031520;28;20057;-70
2022/08/14 01:43:47;;;;;;;8.68;6.00;;;24.40;57.50;;;;;;5031473;28;20053;-72
2022/08/14 01:46:14;;;;;;;6.78;6.07;;;24.40;57.40;;;;;;5030866;28;20525;-71
2022/08/14 01:48:43;;;;;;;6.43;5.82;;;24.30;62.70;;;;;;5031492;28;20051;-73
2022/08/14 01:51:10;;;;;;;7.70;5.90;;;24.40;57.50;;;;;;5031268;28;20049;-73
2022/08/14 01:53:37;;;;;;;8.52;5.90;;;24.40;57.50;;;;;;5031402;28;20099;-73
2022/08/14 01:56:06;;;;;;;6.07;5.47;;;24.30;57.40;;;;;;5031226;28;20061;-73
2022/08/14 01:58:32;;;;;;;6.57;5.97;;;24.40;57.50;;;;;;5030814;28;20049;-70
2022/08/14 02:00:59;;;;;;;6.18;5.57;;;24.10;59.90;;;;;;5011291;28;20426;-70
2022/08/14 02:03:27;;;;;;;7.32;5.72;;;24.40;57.50;;;;;;5011466;28;20521;-73
2022/08/14 02:05:58;;;;;;;6.53;5.90;;;24.40;57.50;;;;;;5011466;28;20482;-70
2022/08/14 02:08:28;;;;;;;7.35;6.10;;;24.30;57.70;;;;;;5011574;28;20132;-71
2022/08/14 02:11:15;;;;;;;6.72;5.75;;;24.40;60.40;;;;;;5010830;28;20132;-73
2022/08/14 02:13:43;;;;;;;6.80;6.05;;;24.30;57.50;;;;;;5018478;28;20503;-73
2022/08/14 02:16:10;;;;;;;7.38;5.97;;;24.60;60.00;;;;;;5011260;28;20487;-72
2022/08/14 02:18:37;;;;;;;5.97;5.30;;;24.30;57.50;;;;;;5012444;28;20410;-73
2022/08/14 02:21:04;;;;;;;6.78;6.07;;;24.10;60.70;;;;;;5011826;28;20050;-73
2022/08/14 02:23:31;;;;;;;6.13;5.53;;;24.30;61.40;;;;;;5011141;28;20532;-73
2022/08/14 02:25:58;;;;;;;6.90;6.20;;;23.80;60.10;;;;;;5011133;28;20060;-73
2022/08/14 02:28:27;;;;;;;6.35;5.75;;;24.30;57.50;;;;;;5023439;28;20064;-73
2022/08/14 02:30:55;;;;;;;6.43;5.78;;;24.30;60.20;;;;;;5030570;28;20525;-75
2022/08/14 02:33:22;;;;;;;6.13;5.63;;;24.30;57.50;;;;;;5030653;28;20061;-74
2022/08/14 02:35:49;;;;;;;6.22;5.57;;;24.30;57.50;;;;;;5031858;28;20046;-75
2022/08/14 02:38:15;;;;;;;6.03;5.43;;;24.20;60.30;;;;;;5030464;28;20045;-74
2022/08/14 02:40:42;;;;;;;7.65;5.93;;;23.80;60.80;;;;;;5030453;28;20049;-71
2022/08/14 02:43:09;;;;;;;6.07;5.47;;;24.20;60.40;;;;;;5031456;28;20437;-73
2022/08/14 02:45:35;;;;;;;6.43;5.82;;;24.20;57.50;;;;;;5030057;28;20055;-73
2022/08/14 02:48:05;;;;;;;6.40;5.80;;;22.80;60.10;;;;;;5031639;28;20045;-73
2022/08/14 02:50:32;;;;;;;5.95;5.35;;;24.30;60.90;;;;;;5030243;28;20141;-73
2022/08/14 02:52:59;;;;;;;6.57;5.85;;;24.20;57.60;;;;;;5030524;28;20166;-72
2022/08/14 02:55:26;;;;;;;6.75;6.05;;;24.10;60.10;;;;;;5030178;28;20063;-71
2022/08/14 02:57:53;;;;;;;6.45;5.70;;;24.00;59.90;;;;;;5030103;28;20497;-71
2022/08/14 03:00:21;;;;;;;6.40;5.47;;;24.20;57.60;;;;;;5029958;28;20533;-72
2022/08/14 03:02:49;;;;;;;6.10;5.50;;;24.20;57.60;;;;;;5030278;28;20072;-73
2022/08/14 03:05:17;;;;;;;6.72;5.93;;;24.10;57.60;;;;;;5031607;28;20077;-74
2022/08/14 03:07:45;;;;;;;7.75;5.50;;;24.10;57.60;;;;;;5031334;28;20059;-73
2022/08/14 03:10:11;;;;;;;6.40;5.80;;;24.10;61.80;;;;;;5030822;28;20048;-70
2022/08/14 03:12:38;;;;;;;6.47;5.80;;;24.10;57.70;;;;;;5030418;28;20060;-71
2022/08/14 03:15:09;;;;;;;5.97;5.30;;;24.10;57.70;;;;;;5030179;28;20057;-71
2022/08/14 03:17:35;;;;;;;6.10;5.60;;;24.00;62.30;;;;;;5030372;28;20049;-71
2022/08/14 03:20:05;;;;;;;7.82;6.00;;;24.10;62.40;;;;;;5029631;28;20421;-71
2022/08/14 03:22:33;;;;;;;6.78;6.07;;;24.00;61.90;;;;;;5030051;28;20148;-71
2022/08/14 03:25:01;;;;;;;6.50;5.90;;;24.10;60.50;;;;;;5030272;28;20066;-71
2022/08/14 03:27:30;;;;;;;6.57;5.97;;;24.00;60.60;;;;;;5030361;28;20053;-71
2022/08/14 03:29:56;;;;;;;7.05;5.57;;;24.10;57.90;;;;;;5030856;28;20135;-72
2022/08/14 03:32:23;;;;;;;7.65;5.65;;;24.00;57.80;;;;;;5030875;28;20055;-73
2022/08/14 03:34:50;;;;;;;7.03;6.00;;;23.70;60.60;;;;;;5031312;28;20444;-74
2022/08/14 03:37:17;;;;;;;6.90;5.85;;;24.00;57.90;;;;;;5030118;28;20137;-72
2022/08/14 03:39:45;;;;;;;8.93;6.40;;;23.80;60.20;;;;;;5030505;28;20513;-73
2022/08/14 03:42:12;;;;;;;8.40;5.85;;;24.70;60.60;;;;;;5030961;28;20046;-74
2022/08/14 03:44:40;;;;;;;7.13;5.97;;;24.00;58.00;;;;;;5030122;28;20127;-74
2022/08/14 03:47:07;;;;;;;7.55;5.88;;;24.40;60.70;;;;;;5029914;28;20062;-75
2022/08/14 03:49:33;;;;;;;7.30;6.10;;;24.00;58.00;;;;;;5030153;28;20568;-74
2022/08/14 03:52:03;;;;;;;7.57;6.10;;;23.70;60.30;;;;;;5029612;28;20058;-74
2022/08/14 03:54:34;;;;;;;7.32;5.93;;;23.90;57.90;;;;;;5029852;28;20061;-74
2022/08/14 03:57:02;;;;;;;6.15;5.55;;;23.90;58.00;;;;;;5031831;28;20493;-75
2022/08/14 03:59:29;;;;;;;7.50;5.82;;;23.90;58.00;;;;;;5034654;28;20053;-74
2022/08/14 04:01:56;;;;;;;6.78;6.15;;;23.90;57.90;;;;;;5033388;28;20076;-74
2022/08/14 04:04:22;;;;;;;6.57;5.97;;;25.00;61.70;;;;;;5033541;28;20409;-74
2022/08/14 04:06:50;;;;;;;6.55;5.95;;;23.90;57.90;;;;;;5033661;28;20091;-74
2022/08/14 04:09:17;;;;;;;6.22;5.63;;;24.00;61.30;;;;;;5034229;28;20507;-74
2022/08/14 04:11:44;;;;;;;6.47;5.88;;;23.90;57.80;;;;;;5033340;28;20114;-73
2022/08/14 04:14:13;;;;;;;6.45;5.85;;;24.00;60.70;;;;;;5034215;28;20060;-72
2022/08/14 04:16:45;;;;;;;6.85;5.88;;;23.80;61.50;;;;;;5035394;28;20506;-72
2022/08/14 04:19:14;;;;;;;6.80;5.72;;;24.00;60.60;;;;;;5032585;28;20572;-72
2022/08/14 04:21:41;;;;;;;6.40;5.80;;;23.90;61.70;;;;;;5016945;28;20140;-71
2022/08/14 04:24:08;;;;;;;6.20;5.60;;;24.00;61.30;;;;;;5032812;28;20141;-72
2022/08/14 04:26:34;;;;;;;7.85;5.85;;;24.00;58.00;;;;;;5033619;28;20570;-73
2022/08/14 04:29:02;;;;;;;6.38;5.63;;;23.80;61.00;;;;;;5035292;28;20055;-73
2022/08/14 04:31:30;;;;;;;7.40;5.88;;;23.90;58.00;;;;;;5034426;28;20136;-72
2022/08/14 04:33:57;;;;;;;7.00;5.32;;;23.90;58.00;;;;;;5033941;28;20088;-74
2022/08/14 04:36:23;;;;;;;6.35;5.70;;;24.30;60.50;;;;;;5032903;28;20057;-74
2022/08/14 04:44:19;;;;;;;5.47;4.97;;;23.90;58.10;;;;;;5032835;28;20053;-73
2022/08/14 04:49:27;;;;;;;6.68;5.97;;;23.90;58.20;;;;;;5031853;28;20089;-72
2022/08/14 04:51:54;;;;;;;5.75;5.15;;;23.90;62.40;;;;;;5032355;28;20053;-71
2022/08/14 04:54:21;;;;;;;6.68;5.95;;;23.90;58.20;;;;;;5032218;28;20152;-73
2022/08/14 04:56:48;;;;;;;6.50;5.90;;;23.90;58.20;;;;;;5032675;28;20057;-71
2022/08/14 04:59:14;;;;;;;6.25;5.65;;;24.10;62.80;;;;;;5033601;28;20140;-74
2022/08/14 05:01:43;;;;;;;6.57;5.90;;;23.80;58.30;;;;;;5032149;28;20502;-73
2022/08/14 05:04:12;;;;;;;6.13;5.53;;;23.90;58.40;;;;;;5032446;28;20535;-72
2022/08/14 05:06:38;;;;;;;6.15;5.18;;;24.00;62.40;;;;;;5033573;28;20449;-72
2022/08/14 05:09:05;;;;;;;8.93;6.13;;;23.90;58.40;;;;;;5032834;28;20449;-72
2022/08/14 05:11:35;;;;;;;6.03;5.45;;;23.90;62.60;;;;;;5033276;28;20049;-72
2022/08/14 05:14:01;;;;;;;6.18;5.43;;;23.90;58.40;;;;;;5032208;28;20095;-73
2022/08/14 05:16:31;;;;;;;6.28;5.68;;;24.00;61.20;;;;;;5030273;28;20053;-74
2022/08/14 05:18:57;;;;;;;6.47;5.85;;;23.50;61.20;;;;;;5033067;28;20056;-72
2022/08/14 05:21:27;;;;;;;6.60;5.90;;;23.90;61.50;;;;;;5031571;28;20089;-74
2022/08/14 05:23:54;;;;;;;6.78;5.43;;;23.80;61.40;;;;;;5031860;28;20053;-74
2022/08/14 05:26:21;;;;;;;6.75;5.60;;;24.40;63.00;;;;;;5031847;28;20478;-74
2022/08/14 05:28:48;;;;;;;5.97;5.38;;;23.70;61.40;;;;;;5031906;28;20398;-74
2022/08/14 05:31:17;;;;;;;5.80;5.30;;;23.80;60.90;;;;;;5031362;28;20060;-74
2022/08/14 05:33:44;;;;;;;6.00;5.40;;;23.90;62.30;;;;;;5032827;28;20508;-74
2022/08/14 05:36:11;;;;;;;5.55;5.03;;;23.90;58.50;;;;;;5031275;28;20084;-74
2022/08/14 05:38:40;;;;;;;6.32;5.68;;;24.00;63.00;;;;;;5032640;28;20050;-74
2022/08/14 05:41:10;;;;;;;6.00;5.40;;;24.60;61.70;;;;;;5031161;28;20461;-74
2022/08/14 05:43:37;;;;;;;5.93;5.43;;;23.90;61.10;;;;;;5031564;28;20499;-74
2022/08/14 05:46:04;;;;;;;6.15;5.32;;;23.90;61.10;;;;;;5032755;28;20053;-74
2022/08/14 05:48:31;;;;;;;6.00;5.40;;;23.90;61.30;;;;;;5031862;28;20570;-74
2022/08/14 05:50:58;;;;;;;5.85;5.25;;;23.90;58.30;;;;;;5030256;28;20555;-75
2022/08/14 05:53:26;;;;;;;6.35;5.75;;;23.90;58.30;;;;;;5032417;28;20049;-74
2022/08/14 05:55:55;;;;;;;5.60;5.00;;;24.00;61.80;;;;;;5031372;28;20506;-74
2022/08/14 05:58:21;;;;;;;6.28;5.53;;;23.90;58.20;;;;;;5032343;28;20491;-74
2022/08/14 06:00:49;;;;;;;6.72;5.20;;;23.70;61.00;;;;;;5031044;28;20059;-74
2022/08/14 06:03:16;;;;;;;5.65;5.15;;;23.60;60.70;;;;;;5031152;28;20053;-71
2022/08/14 06:05:43;;;;;;;5.60;5.10;;;23.90;58.10;;;;;;5031024;28;20059;-71
2022/08/14 06:08:16;;;;;;;5.85;5.25;;;23.90;58.10;;;;;;5032251;28;20045;-71
2022/08/14 06:10:43;;;;;;;6.47;5.82;;;23.90;60.80;;;;;;5031087;28;20088;-71
2022/08/14 06:13:11;;;;;;;7.05;5.82;;;23.90;58.20;;;;;;5031118;28;20063;-71
2022/08/14 06:15:38;;;;;;;6.47;5.88;;;22.90;61.40;;;;;;5031442;28;20137;-71
2022/08/14 06:18:05;;;;;;;6.20;5.60;;;23.90;58.20;;;;;;5032431;28;20055;-71
2022/08/14 06:20:32;;;;;;;6.75;6.15;;;23.30;60.80;;;;;;5030152;28;20509;-71
2022/08/14 06:22:59;;;;;;;6.75;6.13;;;22.90;60.90;;;;;;5030889;28;20085;-71
2022/08/14 06:25:26;;;;;;;6.53;5.85;;;23.90;58.20;;;;;;5032170;28;20445;-71
2022/08/14 06:27:52;;;;;;;5.50;5.03;;;23.40;60.20;;;;;;5032144;28;20455;-73
2022/08/14 06:30:21;;;;;;;5.13;4.63;;;24.00;57.90;;;;;;5031687;28;20067;-74
2022/08/14 06:32:48;;;;;;;5.93;5.43;;;24.10;57.80;;;;;;5030973;28;20065;-73
2022/08/14 06:35:19;;;;;;;5.38;4.93;;;24.10;57.80;;;;;;5030595;28;20492;-71
2022/08/14 06:37:47;;;;;;;5.40;4.90;;;24.20;57.70;;;;;;5031091;28;20057;-73
2022/08/14 06:40:15;;;;;;;5.30;4.80;;;25.10;62.80;;;;;;5030220;28;20095;-71
2022/08/14 06:42:42;;;;;;;5.60;5.10;;;24.30;57.50;;;;;;5030896;28;20059;-70
2022/08/14 06:45:09;;;;;;;5.80;4.93;;;24.40;57.50;;;;;;5031034;28;20057;-74
2022/08/14 06:47:39;;;;;;;6.03;5.43;;;25.00;60.00;;;;;;5030409;28;20057;-73
2022/08/14 06:50:07;;;;;;;5.45;4.95;;;25.60;62.20;;;;;;5029962;28;20459;-71
2022/08/14 06:52:33;;;;;;;5.32;4.82;;;24.60;60.80;;;;;;5044389;28;20092;-71
2022/08/14 06:55:00;;;;;;;7.35;5.00;;;24.90;57.00;;;;;;5031447;28;20140;-71
2022/08/14 06:57:34;;;;;;;5.35;4.85;;;24.90;56.80;;;;;;5030469;28;20065;-71
2022/08/14 07:00:01;;;;;;;6.45;4.90;;;25.10;56.60;;;;;;5029459;28;20057;-72
2022/08/14 07:07:58;;;;;;;5.35;4.85;;;25.60;59.90;;;;;;5030660;28;20057;-71
2022/08/14 07:10:25;;;;;;;5.32;4.82;;;25.40;56.00;;;;;;5030047;28;20058;-74
2022/08/14 07:12:51;;;;;;;6.45;4.88;;;25.50;55.90;;;;;;5030225;28;20041;-74
2022/08/14 07:15:18;;;;;;;6.25;4.78;;;25.50;59.40;;;;;;5030134;28;20132;-74
2022/08/14 07:17:46;;;;;;;5.85;5.25;;;25.50;60.90;;;;;;5031150;28;20048;-73
2022/08/14 07:20:15;;;;;;;5.97;5.38;;;25.70;55.80;;;;;;5030192;28;20049;-74
2022/08/14 07:22:41;;;;;;;6.80;5.28;;;25.80;55.80;;;;;;5030531;28;20065;-74
2022/08/14 07:25:09;;;;;;;5.85;5.20;;;25.80;55.80;;;;;;5029071;28;20052;-75
2022/08/14 07:27:36;;;;;;;5.43;4.93;;;25.90;55.90;;;;;;5031411;28;20128;-75
2022/08/14 07:30:03;;;;;;;6.30;5.45;;;25.90;59.40;;;;;;5030270;28;20055;-75
2022/08/14 07:32:30;;;;;;;9.02;5.13;;;26.10;58.90;;;;;;5034230;28;20053;-74
2022/08/14 07:34:57;;;;;;;5.35;4.82;;;27.10;60.80;;;;;;5035254;28;20057;-74
2022/08/14 07:37:25;;;;;;;6.75;5.53;;;26.00;55.50;;;;;;5034979;28;20492;-75
2022/08/14 07:39:52;;;;;;;7.78;5.28;;;26.10;55.50;;;;;;5033985;28;20059;-73
2022/08/14 07:42:19;;;;;;;5.95;5.07;;;26.20;58.50;;;;;;5033895;28;20409;-74
2022/08/14 07:44:45;;;;;;;5.57;4.80;;;26.10;55.40;;;;;;5033941;28;20049;-75
2022/08/14 07:47:12;;;;;;;5.70;4.95;;;26.10;55.30;;;;;;5034018;28;20063;-71
2022/08/14 07:49:39;;;;;;;5.45;4.93;;;26.20;55.30;;;;;;5034036;28;20064;-71
2022/08/14 07:52:05;;;;;;;5.43;4.90;;;26.50;57.10;;;;;;5034485;28;20128;-71
2022/08/14 07:54:34;;;;;;;5.13;4.63;;;26.20;55.20;;;;;;5033445;28;20132;-74
2022/08/14 07:57:01;;;;;;;5.75;5.22;;;26.20;55.10;;;;;;5034699;28;20138;-75
2022/08/14 07:59:28;;;;;;;6.53;5.10;;;26.30;58.80;;;;;;5033702;28;20053;-75
2022/08/14 08:01:55;;;;;;;5.93;4.97;;;26.30;55.00;;;;;;5033353;28;20088;-74
2022/08/14 08:04:22;;;;;;;5.60;4.50;;;26.30;55.00;;;;;;5032804;28;20065;-74
2022/08/14 08:06:50;;;;;;;5.40;4.90;;;26.30;58.50;;;;;;5033107;28;20049;-74
2022/08/14 08:09:16;;;;;;;5.80;4.78;;;26.30;55.00;;;;;;5032212;28;20065;-73
2022/08/14 08:11:44;;;;;;;5.22;4.70;;;26.30;54.90;;;;;;5049404;28;20479;-74
2022/08/14 08:14:11;;;;;;;5.53;5.03;;;26.40;55.00;;;;;;5032530;28;20046;-74
2022/08/14 08:16:38;;;;;;;4.80;4.40;;;27.10;58.60;;;;;;5034102;28;20045;-74
2022/08/14 08:19:05;;;;;;;7.30;4.82;;;26.20;57.70;;;;;;5033798;28;20132;-74
2022/08/14 08:21:32;;;;;;;5.25;4.75;;;26.40;54.90;;;;;;5033676;28;20049;-74
2022/08/14 08:23:59;;;;;;;7.13;5.20;;;26.50;54.90;;;;;;5032808;28;20111;-74
2022/08/14 08:26:29;;;;;;;7.88;5.00;;;26.50;54.90;;;;;;5046281;28;20049;-74
2022/08/14 08:28:58;;;;;;;5.47;4.97;;;26.50;54.90;;;;;;5032701;28;20495;-74
2022/08/14 08:31:25;;;;;;;8.38;4.82;;;26.50;54.90;;;;;;5032606;28;20081;-74
2022/08/14 08:33:52;;;;;;;6.10;4.97;;;26.50;54.90;;;;;;5031821;28;20057;-74
2022/08/14 08:36:19;;;;;;;5.97;5.32;;;26.60;58.50;;;;;;5032507;28;20056;-74
2022/08/14 08:38:48;;;;;;;5.55;4.47;;;26.50;54.90;;;;;;5029996;28;20498;-74
2022/08/14 08:41:15;;;;;;;5.32;4.82;;;26.30;58.40;;;;;;5048787;28;20054;-71
2022/08/14 08:43:42;;;;;;;4.90;4.30;;;26.50;55.00;;;;;;5031563;28;20061;-71
2022/08/14 08:46:10;;;;;;;5.47;4.68;;;26.50;55.00;;;;;;5033011;28;20133;-72
2022/08/14 08:48:44;;;;;;;6.07;4.78;;;26.50;55.00;;;;;;5030599;28;20077;-71
2022/08/14 08:51:21;;;;;;;6.00;4.57;;;26.50;55.00;;;;;;5031549;28;20462;-71
2022/08/14 08:53:56;;;;;;;5.22;4.72;;;26.50;55.10;;;;;;5032592;28;20049;-72
2022/08/14 08:56:34;;;;;;;5.60;5.10;;;26.50;55.10;;;;;;5031248;28;20057;-71
2022/08/14 08:59:01;;;;;;;5.60;4.68;;;26.50;55.10;;;;;;5032649;28;20049;-71
2022/08/14 09:01:30;;;;;;;5.47;4.47;;;26.40;55.00;;;;;;5032382;28;20508;-70
2022/08/14 09:04:02;;;;;;;5.00;4.60;;;26.50;55.10;;;;;;5032332;28;20049;-73
2022/08/14 09:06:29;;;;;;;5.47;4.32;;;26.50;55.20;;;;;;5032148;28;20123;-73
2022/08/14 09:08:56;;;;;;;5.45;4.78;;;26.40;55.10;;;;;;5032455;28;20144;-73
2022/08/14 09:11:23;;;;;;;5.03;4.55;;;26.40;55.10;;;;;;5033281;28;20129;-72
2022/08/14 09:13:51;;;;;;;5.18;4.68;;;25.90;58.10;;;;;;5032999;28;20057;-72
2022/08/14 09:16:19;;;;;;;5.15;4.63;;;26.60;58.50;;;;;;5030155;28;20057;-72
2022/08/14 09:18:48;;;;;;;6.00;4.80;;;26.40;55.30;;;;;;5031865;28;20546;-73
2022/08/14 09:21:15;;;;;;;6.57;4.85;;;24.70;54.20;;;;;;5031504;28;20132;-72
2022/08/14 09:23:41;;;;;;;5.15;4.65;;;26.30;58.00;;;;;;5032073;28;20529;-71
2022/08/14 09:26:08;;;;;;;6.47;4.63;;;26.50;55.50;;;;;;5032040;28;20056;-72
2022/08/14 09:28:35;;;;;;;5.40;4.53;;;26.50;55.50;;;;;;5032644;28;20041;-72
2022/08/14 09:31:01;;;;;;;6.82;4.90;;;26.40;58.60;;;;;;5031540;28;20088;-72
2022/08/14 09:33:52;;;;;;;7.90;4.55;;;26.50;59.40;;;;;;5032909;28;20041;-71
2022/08/14 09:36:30;;;;;;;6.47;4.40;;;26.50;55.50;;;;;;5031670;28;20570;-72
2022/08/14 09:39:01;;;;;;;8.15;4.90;;;25.10;58.60;;;;;;5031979;28;20057;-71
2022/08/14 09:41:34;;;;;;;5.07;4.45;;;26.70;58.50;;;;;;5032639;28;20060;-71
2022/08/14 09:44:05;;;;;;;4.97;4.47;;;26.60;55.50;;;;;;5031838;28;20148;-72
2022/08/14 09:46:32;;;;;;;7.03;4.75;;;26.60;55.40;;;;;;5031061;28;20422;-71
2022/08/14 09:49:00;;;;;;;5.68;4.40;;;26.40;58.10;;;;;;5031570;28;20049;-72
2022/08/14 09:51:27;;;;;;;5.13;4.47;;;26.70;58.90;;;;;;5031213;28;20049;-72
2022/08/14 09:54:00;;;;;;;4.78;4.22;;;26.60;55.40;;;;;;5030343;28;20061;-73
2022/08/14 09:56:27;;;;;;;4.78;4.38;;;26.40;58.40;;;;;;5031581;28;20064;-72
2022/08/14 09:58:56;;;;;;;5.95;4.30;;;26.60;55.40;;;;;;5031422;28;20063;-72
2022/08/14 10:01:23;;;;;;;4.40;4.00;;;26.60;55.30;;;;;;5030494;28;20487;-74
2022/08/14 10:03:51;;;;;;;4.65;4.25;;;26.60;55.40;;;;;;5028091;28;20076;-75
2022/08/14 10:06:23;;;;;;;4.50;4.10;;;26.60;55.40;;;;;;5030694;28;20132;-74
2022/08/14 10:08:51;;;;;;;4.70;4.30;;;26.70;55.50;;;;;;5028096;28;20502;-75
2022/08/14 10:11:20;;;;;;;4.53;4.13;;;26.60;55.30;;;;;;5031716;28;20402;-74
2022/08/14 10:13:51;;;;;;;4.45;4.05;;;26.70;55.40;;;;;;5030522;28;20489;-74
2022/08/14 10:16:18;;;;;;;4.78;4.30;;;26.70;55.40;;;;;;5030998;28;20147;-75
2022/08/14 10:18:45;;;;;;;6.10;4.28;;;26.70;55.40;;;;;;5031375;28;20130;-75
2022/08/14 10:21:16;;;;;;;4.90;4.40;;;26.70;59.10;;;;;;5030256;28;20496;-75
2022/08/14 10:23:48;;;;;;;4.90;4.50;;;26.70;55.40;;;;;;5030603;28;20049;-75
2022/08/14 10:26:16;;;;;;;5.03;4.53;;;27.70;58.90;;;;;;5032056;28;20057;-75
2022/08/14 10:28:46;;;;;;;5.13;4.47;;;26.60;55.30;;;;;;5030873;28;20398;-75
2022/08/14 10:31:21;;;;;;;5.13;4.70;;;26.70;57.50;;;;;;5030676;28;20049;-71
2022/08/14 10:34:02;;;;;;;4.60;4.20;;;26.60;55.40;;;;;;5029753;28;20056;-72
2022/08/14 10:36:31;;;;;;;5.22;4.40;;;26.70;55.50;;;;;;5030584;28;20054;-72
2022/08/14 10:39:00;;;;;;;6.78;4.63;;;26.70;58.70;;;;;;5030972;28;20051;-74
2022/08/14 10:41:35;;;;;;;4.97;4.38;;;26.70;55.50;;;;;;5030232;28;20483;-73
2022/08/14 10:44:07;;;;;;;4.90;4.50;;;26.70;55.50;;;;;;5032143;28;20386;-74
2022/08/14 10:46:39;;;;;;;4.80;4.40;;;26.70;59.10;;;;;;5030457;28;20136;-74
2022/08/14 10:49:06;;;;;;;4.90;4.43;;;26.70;55.60;;;;;;5030782;28;20049;-74
2022/08/14 10:51:34;;;;;;;5.30;4.80;;;26.60;55.50;;;;;;5030614;28;20058;-73
2022/08/14 10:54:08;;;;;;;5.28;4.68;;;26.70;55.50;;;;;;5031621;28;20052;-71
2022/08/14 10:56:35;;;;;;;4.95;4.30;;;26.70;55.50;;;;;;5030665;28;20085;-72
2022/08/14 10:59:02;;;;;;;5.43;4.50;;;26.70;55.50;;;;;;5030026;28;20045;-74
2022/08/14 11:01:30;;;;;;;4.75;4.35;;;26.80;60.20;;;;;;5030427;28;20054;-75
2022/08/14 11:03:57;;;;;;;4.88;4.38;;;26.30;58.20;;;;;;5030565;28;20055;-73
2022/08/14 11:06:24;;;;;;;6.95;4.70;;;26.70;55.50;;;;;;5034240;28;20049;-71
2022/08/14 11:08:52;;;;;;;4.32;3.92;;;26.90;59.70;;;;;;5034647;28;20057;-74
2022/08/14 11:11:21;;;;;;;4.95;4.50;;;26.70;55.50;;;;;;5034192;28;20041;-74
2022/08/14 11:13:49;;;;;;;5.13;4.63;;;26.70;55.50;;;;;;5033751;28;20049;-74
2022/08/14 11:16:17;;;;;;;4.72;4.32;;;26.80;55.50;;;;;;5032746;28;20454;-74
2022/08/14 11:18:44;;;;;;;4.78;4.28;;;26.70;55.50;;;;;;5034216;28;20564;-71
2022/08/14 11:21:15;;;;;;;5.30;4.68;;;26.80;58.50;;;;;;5033254;28;20081;-71
2022/08/14 11:23:42;;;;;;;5.45;4.32;;;26.80;55.50;;;;;;5032778;28;20049;-73
2022/08/14 11:26:09;;;;;;;4.95;4.45;;;26.80;55.50;;;;;;5034385;28;20055;-70
2022/08/14 11:28:38;;;;;;;5.10;4.50;;;27.60;58.60;;;;;;5034291;28;20060;-70
2022/08/14 11:31:05;;;;;;;4.82;4.10;;;26.30;57.60;;;;;;5034060;28;20049;-70
2022/08/14 11:33:35;;;;;;;4.40;4.00;;;26.80;55.50;;;;;;5033897;28;20060;-72
2022/08/14 11:36:04;;;;;;;4.32;3.95;;;27.60;58.60;;;;;;5034550;28;20097;-72
2022/08/14 11:38:35;;;;;;;5.15;4.32;;;26.80;55.50;;;;;;5033915;28;20156;-72
2022/08/14 11:41:02;;;;;;;5.15;4.65;;;26.80;55.50;;;;;;5034851;28;20508;-73
2022/08/14 11:43:29;;;;;;;4.90;4.50;;;26.80;55.50;;;;;;5027232;28;20049;-72
2022/08/14 11:45:57;;;;;;;4.60;4.20;;;26.70;57.80;;;;;;5035071;28;20379;-72
2022/08/14 11:48:25;;;;;;;4.72;4.32;;;26.80;55.50;;;;;;5034501;28;20125;-72
2022/08/14 11:50:53;;;;;;;5.18;4.68;;;26.80;55.50;;;;;;5033942;28;20469;-72
2022/08/14 11:53:21;;;;;;;4.95;4.45;;;26.90;55.50;;;;;;5053702;28;20067;-72
2022/08/14 11:55:49;;;;;;;6.75;4.70;;;26.80;55.50;;;;;;5053821;28;20053;-75
2022/08/14 11:58:16;;;;;;;7.10;4.78;;;26.90;56.10;;;;;;5068551;28;20064;-75
2022/08/14 12:00:46;;;;;;;6.28;4.38;;;26.90;55.50;;;;;;5052673;28;20040;-74
2022/08/14 12:03:14;;;;;;;4.88;4.25;;;26.90;55.50;;;;;;5054615;28;20502;-75
2022/08/14 12:05:41;;;;;;;4.68;4.28;;;26.90;55.60;;;;;;5053311;28;20049;-74
2022/08/14 12:08:09;;;;;;;5.13;4.35;;;27.70;58.50;;;;;;5053555;28;20057;-75
2022/08/14 12:10:35;;;;;;;5.90;4.10;;;26.90;55.60;;;;;;5053294;28;20052;-75
2022/08/14 12:13:12;;;;;;;8.30;5.05;;;26.90;55.50;;;;;;5054366;28;20136;-75
2022/08/14 12:15:39;;;;;;;4.70;4.30;;;26.90;55.50;;;;;;5051358;28;20076;-75
2022/08/14 12:18:06;;;;;;;6.15;4.22;;;26.90;55.50;;;;;;5052284;28;20529;-75
2022/08/14 12:20:36;;;;;;;4.57;4.18;;;27.00;55.60;;;;;;5052928;28;20079;-76
2022/08/14 12:23:04;;;;;;;4.53;4.13;;;27.00;55.60;;;;;;5054258;28;20556;-75
2022/08/14 12:25:30;;;;;;;4.82;4.32;;;26.90;55.50;;;;;;5052993;28;20068;-74
2022/08/14 12:27:59;;;;;;;4.97;4.50;;;27.20;59.20;;;;;;5053201;28;20401;-75
2022/08/14 12:30:32;;;;;;;4.35;3.95;;;27.20;59.60;;;;;;5039247;28;20088;-75
2022/08/14 12:32:59;;;;;;;4.43;4.03;;;27.00;55.50;;;;;;5032863;28;20057;-75
2022/08/14 12:35:37;;;;;;;4.93;4.22;;;26.90;55.50;;;;;;5034114;28;20128;-75
2022/08/14 12:38:04;;;;;;;4.95;4.50;;;27.00;55.50;;;;;;5032545;28;20053;-73
2022/08/14 12:40:31;;;;;;;5.18;4.47;;;27.00;55.50;;;;;;5032639;28;20084;-72
2022/08/14 12:43:00;;;;;;;6.30;4.35;;;27.00;58.40;;;;;;5032829;28;20509;-72
2022/08/14 12:45:31;;;;;;;4.85;4.07;;;27.00;55.50;;;;;;5048348;28;20102;-72
2022/08/14 12:48:00;;;;;;;4.50;4.10;;;27.00;55.50;;;;;;5053873;28;20148;-73
2022/08/14 12:50:36;;;;;;;6.00;4.20;;;27.00;55.50;;;;;;5052298;28;20088;-72
2022/08/14 12:53:03;;;;;;;4.50;4.10;;;27.00;55.50;;;;;;5052721;28;20119;-75
2022/08/14 12:55:34;;;;;;;4.22;3.83;;;27.00;59.00;;;;;;5052692;28;20044;-75
2022/08/14 12:58:04;;;;;;;4.50;4.10;;;27.00;55.50;;;;;;5052644;28;20063;-74
2022/08/14 13:00:30;;;;;;;4.55;4.03;;;26.50;57.90;;;;;;5033595;28;20107;-75
2022/08/14 13:02:57;;;;;;;4.55;4.15;;;27.10;57.50;;;;;;5032429;28;20057;-75
2022/08/14 13:05:25;;;;;;;4.65;4.00;;;26.90;57.80;;;;;;5033895;28;20151;-75
2022/08/14 13:07:53;;;;;;;4.93;4.43;;;27.00;55.60;;;;;;5033699;28;20056;-75